sensor_id;sensor_type;location;lat;lon;timestamp;P1;durP1;ratioP1;P2;durP2;ratioP2
60030;SDS011;45901;47.600;9.890;2024-02-15T00:00:49;6.03;;;3.57;;
60030;SDS011;45901;47.600;9.890;2024-02-15T00:03:19;6.17;;;3.47;;
60030;SDS011;45901;47.600;9.890;2024-02-15T00:05:47;8.90;;;4.13;;
60030;SDS011;45901;47.600;9.890;2024-02-15T00:08:14;6.37;;;3.30;;
60030;SDS011;45901;47.600;9.890;2024-02-15T00:10:41;6.80;;;3.87;;
60030;SDS011;45901;47.600;9.890;2024-02-15T00:13:11;7.90;;;4.57;;
60030;SDS011;45901;47.600;9.890;2024-02-15T00:15:38;9.43;;;4.90;;
60030;SDS011;45901;47.600;9.890;2024-02-15T00:18:05;6.37;;;4.03;;
60030;SDS011;45901;47.600;9.890;2024-02-15T00:20:34;7.67;;;4.00;;
60030;SDS011;45901;47.600;9.890;2024-02-15T00:23:01;10.20;;;4.30;;
60030;SDS011;45901;47.600;9.890;2024-02-15T00:25:28;7.23;;;3.80;;
60030;SDS011;45901;47.600;9.890;2024-02-15T00:27:55;6.33;;;3.30;;
60030;SDS011;45901;47.600;9.890;2024-02-15T00:30:22;6.57;;;3.40;;
60030;SDS011;45901;47.600;9.890;2024-02-15T00:32:49;5.80;;;2.97;;
60030;SDS011;45901;47.600;9.890;2024-02-15T00:35:16;5.93;;;3.27;;
60030;SDS011;45901;47.600;9.890;2024-02-15T00:37:45;6.73;;;3.47;;
60030;SDS011;45901;47.600;9.890;2024-02-15T00:40:12;8.13;;;3.80;;
60030;SDS011;45901;47.600;9.890;2024-02-15T00:42:39;6.47;;;3.60;;
60030;SDS011;45901;47.600;9.890;2024-02-15T00:45:06;5.37;;;3.00;;
60030;SDS011;45901;47.600;9.890;2024-02-15T00:47:34;6.77;;;3.10;;
60030;SDS011;45901;47.600;9.890;2024-02-15T00:50:02;5.13;;;2.70;;
60030;SDS011;45901;47.600;9.890;2024-02-15T00:52:29;6.43;;;3.07;;
60030;SDS011;45901;47.600;9.890;2024-02-15T00:54:58;6.13;;;2.97;;
60030;SDS011;45901;47.600;9.890;2024-02-15T00:57:25;4.73;;;2.70;;
60030;SDS011;45901;47.600;9.890;2024-02-15T00:59:52;5.30;;;2.60;;
60030;SDS011;45901;47.600;9.890;2024-02-15T01:02:20;5.20;;;2.50;;
60030;SDS011;45901;47.600;9.890;2024-02-15T01:04:51;4.97;;;2.07;;
60030;SDS011;45901;47.600;9.890;2024-02-15T01:07:20;5.33;;;2.20;;
60030;SDS011;45901;47.600;9.890;2024-02-15T01:09:47;4.63;;;2.60;;
60030;SDS011;45901;47.600;9.890;2024-02-15T01:12:15;4.77;;;2.63;;
60030;SDS011;45901;47.600;9.890;2024-02-15T01:14:42;5.20;;;2.70;;
60030;SDS011;45901;47.600;9.890;2024-02-15T01:17:09;4.57;;;2.60;;
60030;SDS011;45901;47.600;9.890;2024-02-15T01:19:36;4.60;;;2.60;;
60030;SDS011;45901;47.600;9.890;2024-02-15T01:22:03;5.27;;;2.10;;
60030;SDS011;45901;47.600;9.890;2024-02-15T01:24:31;4.80;;;1.97;;
60030;SDS011;45901;47.600;9.890;2024-02-15T01:26:58;4.33;;;2.40;;
60030;SDS011;45901;47.600;9.890;2024-02-15T01:29:27;5.23;;;2.27;;
60030;SDS011;45901;47.600;9.890;2024-02-15T01:31:54;4.33;;;2.30;;
60030;SDS011;45901;47.600;9.890;2024-02-15T01:34:22;4.00;;;2.43;;
60030;SDS011;45901;47.600;9.890;2024-02-15T01:36:48;3.17;;;2.13;;
60030;SDS011;45901;47.600;9.890;2024-02-15T01:39:16;8.60;;;2.00;;
60030;SDS011;45901;47.600;9.890;2024-02-15T01:41:46;2.80;;;1.57;;
60030;SDS011;45901;47.600;9.890;2024-02-15T01:44:15;3.83;;;1.80;;
60030;SDS011;45901;47.600;9.890;2024-02-15T01:46:44;7.03;;;1.70;;
60030;SDS011;45901;47.600;9.890;2024-02-15T01:49:12;4.30;;;1.87;;
60030;SDS011;45901;47.600;9.890;2024-02-15T01:51:40;4.37;;;1.90;;
60030;SDS011;45901;47.600;9.890;2024-02-15T01:54:09;3.30;;;1.67;;
60030;SDS011;45901;47.600;9.890;2024-02-15T01:56:36;5.20;;;1.93;;
60030;SDS011;45901;47.600;9.890;2024-02-15T01:59:04;2.27;;;1.33;;
60030;SDS011;45901;47.600;9.890;2024-02-15T02:01:32;4.97;;;1.53;;
60030;SDS011;45901;47.600;9.890;2024-02-15T02:04:01;4.67;;;1.57;;
60030;SDS011;45901;47.600;9.890;2024-02-15T02:06:29;2.93;;;1.47;;
60030;SDS011;45901;47.600;9.890;2024-02-15T02:08:57;2.23;;;1.57;;
60030;SDS011;45901;47.600;9.890;2024-02-15T02:11:24;5.60;;;1.90;;
60030;SDS011;45901;47.600;9.890;2024-02-15T02:13:54;2.37;;;1.47;;
60030;SDS011;45901;47.600;9.890;2024-02-15T02:16:24;3.23;;;1.87;;
60030;SDS011;45901;47.600;9.890;2024-02-15T02:18:52;2.57;;;1.50;;
60030;SDS011;45901;47.600;9.890;2024-02-15T02:21:22;3.83;;;1.90;;
60030;SDS011;45901;47.600;9.890;2024-02-15T02:23:52;4.33;;;1.70;;
60030;SDS011;45901;47.600;9.890;2024-02-15T02:26:23;2.60;;;1.53;;
60030;SDS011;45901;47.600;9.890;2024-02-15T02:28:51;2.50;;;1.50;;
60030;SDS011;45901;47.600;9.890;2024-02-15T02:31:19;2.93;;;1.30;;
60030;SDS011;45901;47.600;9.890;2024-02-15T02:33:47;3.70;;;1.33;;
60030;SDS011;45901;47.600;9.890;2024-02-15T02:36:18;4.17;;;1.53;;
60030;SDS011;45901;47.600;9.890;2024-02-15T02:38:46;2.63;;;1.43;;
60030;SDS011;45901;47.600;9.890;2024-02-15T02:41:15;5.93;;;1.40;;
60030;SDS011;45901;47.600;9.890;2024-02-15T02:43:43;3.80;;;1.53;;
60030;SDS011;45901;47.600;9.890;2024-02-15T02:46:10;3.70;;;1.60;;
60030;SDS011;45901;47.600;9.890;2024-02-15T02:48:38;2.73;;;1.50;;
60030;SDS011;45901;47.600;9.890;2024-02-15T02:51:06;3.23;;;1.30;;
60030;SDS011;45901;47.600;9.890;2024-02-15T02:53:33;3.50;;;1.80;;
60030;SDS011;45901;47.600;9.890;2024-02-15T02:56:00;2.43;;;1.30;;
60030;SDS011;45901;47.600;9.890;2024-02-15T02:58:28;2.50;;;1.20;;
60030;SDS011;45901;47.600;9.890;2024-02-15T03:00:57;3.10;;;1.40;;
60030;SDS011;45901;47.600;9.890;2024-02-15T03:03:25;3.17;;;1.33;;
60030;SDS011;45901;47.600;9.890;2024-02-15T03:05:52;2.77;;;1.30;;
60030;SDS011;45901;47.600;9.890;2024-02-15T03:08:20;1.60;;;1.10;;
60030;SDS011;45901;47.600;9.890;2024-02-15T03:10:47;2.50;;;1.13;;
60030;SDS011;45901;47.600;9.890;2024-02-15T03:13:14;2.40;;;1.17;;
60030;SDS011;45901;47.600;9.890;2024-02-15T03:15:44;3.97;;;1.37;;
60030;SDS011;45901;47.600;9.890;2024-02-15T03:18:14;2.53;;;1.30;;
60030;SDS011;45901;47.600;9.890;2024-02-15T03:20:41;1.83;;;1.13;;
60030;SDS011;45901;47.600;9.890;2024-02-15T03:23:08;2.30;;;1.33;;
60030;SDS011;45901;47.600;9.890;2024-02-15T03:25:36;2.20;;;1.30;;
60030;SDS011;45901;47.600;9.890;2024-02-15T03:28:03;3.57;;;1.00;;
60030;SDS011;45901;47.600;9.890;2024-02-15T03:30:31;4.20;;;1.40;;
60030;SDS011;45901;47.600;9.890;2024-02-15T03:32:59;2.33;;;1.20;;
60030;SDS011;45901;47.600;9.890;2024-02-15T03:35:29;2.80;;;1.10;;
60030;SDS011;45901;47.600;9.890;2024-02-15T03:37:57;1.63;;;1.00;;
60030;SDS011;45901;47.600;9.890;2024-02-15T03:40:24;3.20;;;1.07;;
60030;SDS011;45901;47.600;9.890;2024-02-15T03:42:52;1.90;;;0.80;;
60030;SDS011;45901;47.600;9.890;2024-02-15T03:45:19;1.40;;;0.70;;
60030;SDS011;45901;47.600;9.890;2024-02-15T03:47:50;2.30;;;1.00;;
60030;SDS011;45901;47.600;9.890;2024-02-15T03:50:17;1.70;;;0.83;;
60030;SDS011;45901;47.600;9.890;2024-02-15T03:52:48;1.20;;;0.60;;
60030;SDS011;45901;47.600;9.890;2024-02-15T03:55:15;1.43;;;0.80;;
60030;SDS011;45901;47.600;9.890;2024-02-15T03:57:42;1.27;;;0.70;;
60030;SDS011;45901;47.600;9.890;2024-02-15T04:00:11;2.30;;;0.67;;
60030;SDS011;45901;47.600;9.890;2024-02-15T04:02:40;1.60;;;0.80;;
60030;SDS011;45901;47.600;9.890;2024-02-15T04:05:07;1.23;;;0.60;;
60030;SDS011;45901;47.600;9.890;2024-02-15T04:07:37;1.00;;;0.70;;
60030;SDS011;45901;47.600;9.890;2024-02-15T04:10:06;2.47;;;0.73;;
60030;SDS011;45901;47.600;9.890;2024-02-15T04:12:34;2.27;;;0.80;;
60030;SDS011;45901;47.600;9.890;2024-02-15T04:15:01;1.33;;;0.70;;
60030;SDS011;45901;47.600;9.890;2024-02-15T04:17:36;1.37;;;0.53;;
60030;SDS011;45901;47.600;9.890;2024-02-15T04:20:04;1.07;;;0.60;;
60030;SDS011;45901;47.600;9.890;2024-02-15T04:22:32;1.90;;;0.60;;
60030;SDS011;45901;47.600;9.890;2024-02-15T04:25:01;1.60;;;0.77;;
60030;SDS011;45901;47.600;9.890;2024-02-15T04:27:30;1.57;;;0.80;;
60030;SDS011;45901;47.600;9.890;2024-02-15T04:29:57;1.00;;;0.57;;
60030;SDS011;45901;47.600;9.890;2024-02-15T04:32:24;0.80;;;0.50;;
60030;SDS011;45901;47.600;9.890;2024-02-15T04:34:51;2.03;;;0.60;;
60030;SDS011;45901;47.600;9.890;2024-02-15T04:37:18;1.03;;;0.50;;
60030;SDS011;45901;47.600;9.890;2024-02-15T04:39:45;3.10;;;0.93;;
60030;SDS011;45901;47.600;9.890;2024-02-15T04:42:12;5.80;;;0.90;;
60030;SDS011;45901;47.600;9.890;2024-02-15T04:44:42;1.70;;;0.50;;
60030;SDS011;45901;47.600;9.890;2024-02-15T04:47:09;2.77;;;0.60;;
60030;SDS011;45901;47.600;9.890;2024-02-15T04:49:36;1.97;;;1.00;;
60030;SDS011;45901;47.600;9.890;2024-02-15T04:52:03;2.07;;;0.70;;
60030;SDS011;45901;47.600;9.890;2024-02-15T04:54:32;2.80;;;0.80;;
60030;SDS011;45901;47.600;9.890;2024-02-15T04:56:59;1.50;;;0.63;;
60030;SDS011;45901;47.600;9.890;2024-02-15T04:59:26;1.27;;;0.70;;
60030;SDS011;45901;47.600;9.890;2024-02-15T05:01:55;3.07;;;0.60;;
60030;SDS011;45901;47.600;9.890;2024-02-15T05:04:24;2.57;;;0.70;;
60030;SDS011;45901;47.600;9.890;2024-02-15T05:06:51;1.67;;;0.67;;
60030;SDS011;45901;47.600;9.890;2024-02-15T05:09:18;2.10;;;0.77;;
60030;SDS011;45901;47.600;9.890;2024-02-15T05:11:47;6.17;;;0.73;;
60030;SDS011;45901;47.600;9.890;2024-02-15T05:14:15;3.03;;;0.87;;
60030;SDS011;45901;47.600;9.890;2024-02-15T05:16:44;2.30;;;0.80;;
60030;SDS011;45901;47.600;9.890;2024-02-15T05:19:14;1.43;;;0.80;;
60030;SDS011;45901;47.600;9.890;2024-02-15T05:21:42;2.37;;;0.97;;
60030;SDS011;45901;47.600;9.890;2024-02-15T05:24:11;2.13;;;1.13;;
60030;SDS011;45901;47.600;9.890;2024-02-15T05:26:39;2.00;;;1.03;;
60030;SDS011;45901;47.600;9.890;2024-02-15T05:29:07;1.80;;;1.10;;
60030;SDS011;45901;47.600;9.890;2024-02-15T05:31:36;2.03;;;1.03;;
60030;SDS011;45901;47.600;9.890;2024-02-15T05:34:05;3.40;;;1.70;;
60030;SDS011;45901;47.600;9.890;2024-02-15T05:36:37;3.87;;;1.80;;
60030;SDS011;45901;47.600;9.890;2024-02-15T05:39:04;2.73;;;1.63;;
60030;SDS011;45901;47.600;9.890;2024-02-15T05:41:32;3.20;;;1.60;;
60030;SDS011;45901;47.600;9.890;2024-02-15T05:43:59;8.07;;;2.10;;
60030;SDS011;45901;47.600;9.890;2024-02-15T05:46:26;4.10;;;2.10;;
60030;SDS011;45901;47.600;9.890;2024-02-15T05:48:54;6.23;;;3.10;;
60030;SDS011;45901;47.600;9.890;2024-02-15T05:51:21;14.33;;;7.37;;
60030;SDS011;45901;47.600;9.890;2024-02-15T05:53:50;12.03;;;5.83;;
60030;SDS011;45901;47.600;9.890;2024-02-15T05:56:20;9.23;;;3.77;;
60030;SDS011;45901;47.600;9.890;2024-02-15T05:58:47;6.77;;;4.43;;
60030;SDS011;45901;47.600;9.890;2024-02-15T06:01:14;7.87;;;4.00;;
60030;SDS011;45901;47.600;9.890;2024-02-15T06:03:41;8.07;;;4.10;;
60030;SDS011;45901;47.600;9.890;2024-02-15T06:06:09;11.60;;;4.20;;
60030;SDS011;45901;47.600;9.890;2024-02-15T06:08:37;6.73;;;3.47;;
60030;SDS011;45901;47.600;9.890;2024-02-15T06:11:05;6.90;;;2.93;;
60030;SDS011;45901;47.600;9.890;2024-02-15T06:13:34;24.10;;;8.90;;
60030;SDS011;45901;47.600;9.890;2024-02-15T06:16:01;50.73;;;19.87;;
60030;SDS011;45901;47.600;9.890;2024-02-15T06:18:34;44.27;;;16.13;;
60030;SDS011;45901;47.600;9.890;2024-02-15T06:21:02;39.97;;;14.60;;
60030;SDS011;45901;47.600;9.890;2024-02-15T06:23:30;26.17;;;9.77;;
60030;SDS011;45901;47.600;9.890;2024-02-15T06:25:58;19.83;;;7.83;;
60030;SDS011;45901;47.600;9.890;2024-02-15T06:28:29;24.07;;;9.27;;
60030;SDS011;45901;47.600;9.890;2024-02-15T06:31:13;32.37;;;13.50;;
60030;SDS011;45901;47.600;9.890;2024-02-15T06:33:58;29.00;;;12.33;;
60030;SDS011;45901;47.600;9.890;2024-02-15T06:36:48;24.37;;;10.50;;
60030;SDS011;45901;47.600;9.890;2024-02-15T06:39:34;25.97;;;10.63;;
60030;SDS011;45901;47.600;9.890;2024-02-15T06:42:06;25.43;;;11.50;;
60030;SDS011;45901;47.600;9.890;2024-02-15T06:44:34;23.97;;;11.73;;
60030;SDS011;45901;47.600;9.890;2024-02-15T06:47:01;19.30;;;10.10;;
60030;SDS011;45901;47.600;9.890;2024-02-15T06:49:28;24.10;;;10.67;;
60030;SDS011;45901;47.600;9.890;2024-02-15T06:51:55;24.63;;;9.90;;
60030;SDS011;45901;47.600;9.890;2024-02-15T06:54:24;20.50;;;9.30;;
60030;SDS011;45901;47.600;9.890;2024-02-15T06:56:51;21.40;;;8.63;;
60030;SDS011;45901;47.600;9.890;2024-02-15T06:59:19;22.70;;;10.57;;
60030;SDS011;45901;47.600;9.890;2024-02-15T07:01:48;17.10;;;8.50;;
60030;SDS011;45901;47.600;9.890;2024-02-15T07:04:17;20.33;;;9.03;;
60030;SDS011;45901;47.600;9.890;2024-02-15T07:06:44;15.90;;;7.73;;
60030;SDS011;45901;47.600;9.890;2024-02-15T07:09:13;22.37;;;9.10;;
60030;SDS011;45901;47.600;9.890;2024-02-15T07:11:43;17.40;;;8.93;;
60030;SDS011;45901;47.600;9.890;2024-02-15T07:14:11;19.33;;;9.23;;
60030;SDS011;45901;47.600;9.890;2024-02-15T07:16:38;16.13;;;7.63;;
60030;SDS011;45901;47.600;9.890;2024-02-15T07:19:06;16.30;;;6.90;;
60030;SDS011;45901;47.600;9.890;2024-02-15T07:21:34;16.00;;;7.73;;
60030;SDS011;45901;47.600;9.890;2024-02-15T07:24:01;14.67;;;7.20;;
60030;SDS011;45901;47.600;9.890;2024-02-15T07:26:29;19.80;;;7.57;;
60030;SDS011;45901;47.600;9.890;2024-02-15T07:28:58;19.27;;;8.27;;
60030;SDS011;45901;47.600;9.890;2024-02-15T07:31:27;15.97;;;7.80;;
60030;SDS011;45901;47.600;9.890;2024-02-15T07:33:55;17.97;;;7.80;;
60030;SDS011;45901;47.600;9.890;2024-02-15T07:36:23;18.00;;;7.20;;
60030;SDS011;45901;47.600;9.890;2024-02-15T07:38:51;20.03;;;7.77;;
60030;SDS011;45901;47.600;9.890;2024-02-15T07:41:19;16.03;;;7.60;;
60030;SDS011;45901;47.600;9.890;2024-02-15T07:43:47;17.93;;;7.30;;
60030;SDS011;45901;47.600;9.890;2024-02-15T07:46:15;12.80;;;6.30;;
60030;SDS011;45901;47.600;9.890;2024-02-15T07:48:42;14.90;;;7.80;;
60030;SDS011;45901;47.600;9.890;2024-02-15T07:51:11;18.97;;;9.17;;
60030;SDS011;45901;47.600;9.890;2024-02-15T07:53:41;19.13;;;10.47;;
60030;SDS011;45901;47.600;9.890;2024-02-15T07:56:09;20.80;;;11.50;;
60030;SDS011;45901;47.600;9.890;2024-02-15T07:58:38;18.60;;;9.93;;
60030;SDS011;45901;47.600;9.890;2024-02-15T08:01:07;18.20;;;10.33;;
60030;SDS011;45901;47.600;9.890;2024-02-15T08:03:35;17.00;;;9.20;;
60030;SDS011;45901;47.600;9.890;2024-02-15T08:06:02;15.90;;;8.33;;
60030;SDS011;45901;47.600;9.890;2024-02-15T08:08:32;14.37;;;7.33;;
60030;SDS011;45901;47.600;9.890;2024-02-15T08:11:02;12.73;;;6.43;;
60030;SDS011;45901;47.600;9.890;2024-02-15T08:13:30;9.93;;;5.60;;
60030;SDS011;45901;47.600;9.890;2024-02-15T08:15:57;10.30;;;5.13;;
60030;SDS011;45901;47.600;9.890;2024-02-15T08:18:24;14.33;;;7.67;;
60030;SDS011;45901;47.600;9.890;2024-02-15T08:20:51;9.70;;;5.70;;
60030;SDS011;45901;47.600;9.890;2024-02-15T08:23:18;8.57;;;4.43;;
60030;SDS011;45901;47.600;9.890;2024-02-15T08:25:45;8.70;;;4.30;;
60030;SDS011;45901;47.600;9.890;2024-02-15T08:28:14;9.17;;;4.17;;
60030;SDS011;45901;47.600;9.890;2024-02-15T08:30:41;7.27;;;3.70;;
60030;SDS011;45901;47.600;9.890;2024-02-15T08:33:07;8.77;;;3.60;;
60030;SDS011;45901;47.600;9.890;2024-02-15T08:35:36;5.07;;;2.97;;
60030;SDS011;45901;47.600;9.890;2024-02-15T08:38:05;6.07;;;2.67;;
60030;SDS011;45901;47.600;9.890;2024-02-15T08:40:32;3.33;;;1.80;;
60030;SDS011;45901;47.600;9.890;2024-02-15T08:43:00;1.93;;;1.00;;
60030;SDS011;45901;47.600;9.890;2024-02-15T08:45:29;1.80;;;0.90;;
60030;SDS011;45901;47.600;9.890;2024-02-15T08:47:56;1.60;;;0.80;;
60030;SDS011;45901;47.600;9.890;2024-02-15T08:50:23;1.80;;;0.80;;
60030;SDS011;45901;47.600;9.890;2024-02-15T08:52:50;1.40;;;0.77;;
60030;SDS011;45901;47.600;9.890;2024-02-15T08:55:17;1.30;;;0.70;;
60030;SDS011;45901;47.600;9.890;2024-02-15T08:57:48;1.80;;;0.70;;
60030;SDS011;45901;47.600;9.890;2024-02-15T09:00:15;0.90;;;0.53;;
60030;SDS011;45901;47.600;9.890;2024-02-15T09:02:44;2.00;;;0.87;;
60030;SDS011;45901;47.600;9.890;2024-02-15T09:05:11;0.97;;;0.60;;
60030;SDS011;45901;47.600;9.890;2024-02-15T09:07:39;1.93;;;0.90;;
60030;SDS011;45901;47.600;9.890;2024-02-15T09:10:08;1.27;;;0.70;;
60030;SDS011;45901;47.600;9.890;2024-02-15T09:12:36;1.80;;;0.70;;
60030;SDS011;45901;47.600;9.890;2024-02-15T09:15:05;3.50;;;0.63;;
60030;SDS011;45901;47.600;9.890;2024-02-15T09:17:33;1.10;;;0.53;;
60030;SDS011;45901;47.600;9.890;2024-02-15T09:20:06;1.07;;;0.60;;
60030;SDS011;45901;47.600;9.890;2024-02-15T09:22:39;1.73;;;0.63;;
60030;SDS011;45901;47.600;9.890;2024-02-15T09:25:07;1.13;;;0.60;;
60030;SDS011;45901;47.600;9.890;2024-02-15T09:27:35;2.17;;;0.80;;
60030;SDS011;45901;47.600;9.890;2024-02-15T09:30:03;2.27;;;1.23;;
60030;SDS011;45901;47.600;9.890;2024-02-15T09:32:33;1.20;;;0.77;;
60030;SDS011;45901;47.600;9.890;2024-02-15T09:35:00;1.43;;;0.80;;
60030;SDS011;45901;47.600;9.890;2024-02-15T09:37:29;1.70;;;0.63;;
60030;SDS011;45901;47.600;9.890;2024-02-15T09:39:58;1.80;;;0.60;;
60030;SDS011;45901;47.600;9.890;2024-02-15T09:42:30;0.97;;;0.57;;
60030;SDS011;45901;47.600;9.890;2024-02-15T09:44:59;1.23;;;0.67;;
60030;SDS011;45901;47.600;9.890;2024-02-15T09:47:27;0.50;;;0.30;;
60030;SDS011;45901;47.600;9.890;2024-02-15T09:50:01;0.77;;;0.53;;
60030;SDS011;45901;47.600;9.890;2024-02-15T09:52:30;0.90;;;0.50;;
60030;SDS011;45901;47.600;9.890;2024-02-15T09:55:00;0.90;;;0.50;;
60030;SDS011;45901;47.600;9.890;2024-02-15T09:57:29;1.00;;;0.50;;
60030;SDS011;45901;47.600;9.890;2024-02-15T09:59:58;0.90;;;0.50;;
60030;SDS011;45901;47.600;9.890;2024-02-15T10:02:25;1.40;;;0.77;;
60030;SDS011;45901;47.600;9.890;2024-02-15T10:04:53;2.10;;;0.80;;
60030;SDS011;45901;47.600;9.890;2024-02-15T10:07:22;1.87;;;0.70;;
60030;SDS011;45901;47.600;9.890;2024-02-15T10:09:50;2.60;;;0.90;;
60030;SDS011;45901;47.600;9.890;2024-02-15T10:12:17;2.60;;;0.70;;
60030;SDS011;45901;47.600;9.890;2024-02-15T10:14:47;1.03;;;0.40;;
60030;SDS011;45901;47.600;9.890;2024-02-15T10:17:18;0.70;;;0.43;;
60030;SDS011;45901;47.600;9.890;2024-02-15T10:19:49;1.17;;;0.60;;
60030;SDS011;45901;47.600;9.890;2024-02-15T10:22:32;1.07;;;0.50;;
60030;SDS011;45901;47.600;9.890;2024-02-15T10:25:13;4.13;;;0.73;;
60030;SDS011;45901;47.600;9.890;2024-02-15T10:27:41;2.57;;;0.70;;
60030;SDS011;45901;47.600;9.890;2024-02-15T10:30:17;1.17;;;0.67;;
60030;SDS011;45901;47.600;9.890;2024-02-15T10:32:46;1.17;;;0.60;;
60030;SDS011;45901;47.600;9.890;2024-02-15T10:35:20;2.23;;;0.63;;
60030;SDS011;45901;47.600;9.890;2024-02-15T10:37:48;1.60;;;0.77;;
60030;SDS011;45901;47.600;9.890;2024-02-15T10:40:20;1.13;;;0.53;;
60030;SDS011;45901;47.600;9.890;2024-02-15T10:42:48;1.27;;;0.60;;
60030;SDS011;45901;47.600;9.890;2024-02-15T10:45:17;1.10;;;0.60;;
60030;SDS011;45901;47.600;9.890;2024-02-15T10:47:45;1.40;;;0.80;;
60030;SDS011;45901;47.600;9.890;2024-02-15T10:50:13;1.97;;;0.80;;
60030;SDS011;45901;47.600;9.890;2024-02-15T10:52:43;1.10;;;0.47;;
60030;SDS011;45901;47.600;9.890;2024-02-15T10:55:19;0.83;;;0.60;;
60030;SDS011;45901;47.600;9.890;2024-02-15T10:58:03;1.40;;;0.50;;
60030;SDS011;45901;47.600;9.890;2024-02-15T11:00:33;0.50;;;0.40;;
60030;SDS011;45901;47.600;9.890;2024-02-15T11:03:02;1.37;;;0.63;;
60030;SDS011;45901;47.600;9.890;2024-02-15T11:05:34;0.63;;;0.30;;
60030;SDS011;45901;47.600;9.890;2024-02-15T11:08:03;1.23;;;0.60;;
60030;SDS011;45901;47.600;9.890;2024-02-15T11:10:34;1.07;;;0.27;;
60030;SDS011;45901;47.600;9.890;2024-02-15T11:13:01;0.30;;;0.30;;
60030;SDS011;45901;47.600;9.890;2024-02-15T11:15:45;2.57;;;0.43;;
60030;SDS011;45901;47.600;9.890;2024-02-15T11:21:10;1.33;;;0.43;;
60030;SDS011;45901;47.600;9.890;2024-02-15T11:23:37;1.63;;;0.40;;
60030;SDS011;45901;47.600;9.890;2024-02-15T11:26:07;0.30;;;0.30;;
60030;SDS011;45901;47.600;9.890;2024-02-15T11:28:37;2.20;;;0.53;;
60030;SDS011;45901;47.600;9.890;2024-02-15T11:34:42;0.93;;;0.20;;
60030;SDS011;45901;47.600;9.890;2024-02-15T11:47:27;0.40;;;0.30;;
60030;SDS011;45901;47.600;9.890;2024-02-15T11:50:04;0.40;;;0.30;;
60030;SDS011;45901;47.600;9.890;2024-02-15T11:52:51;2.50;;;0.50;;
60030;SDS011;45901;47.600;9.890;2024-02-15T12:03:45;1.60;;;0.50;;
60030;SDS011;45901;47.600;9.890;2024-02-15T12:06:29;1.13;;;0.47;;
60030;SDS011;45901;47.600;9.890;2024-02-15T12:09:17;1.07;;;0.43;;
60030;SDS011;45901;47.600;9.890;2024-02-15T12:12:04;1.43;;;0.60;;
60030;SDS011;45901;47.600;9.890;2024-02-15T12:14:57;2.30;;;0.70;;
60030;SDS011;45901;47.600;9.890;2024-02-15T12:17:44;3.00;;;0.77;;
60030;SDS011;45901;47.600;9.890;2024-02-15T12:20:29;6.17;;;1.40;;
60030;SDS011;45901;47.600;9.890;2024-02-15T12:22:57;1.40;;;0.60;;
60030;SDS011;45901;47.600;9.890;2024-02-15T12:25:25;2.20;;;0.70;;
60030;SDS011;45901;47.600;9.890;2024-02-15T12:28:00;1.30;;;0.53;;
60030;SDS011;45901;47.600;9.890;2024-02-15T12:30:32;1.00;;;0.50;;
60030;SDS011;45901;47.600;9.890;2024-02-15T12:33:10;1.77;;;0.60;;
60030;SDS011;45901;47.600;9.890;2024-02-15T12:35:45;1.80;;;0.50;;
60030;SDS011;45901;47.600;9.890;2024-02-15T12:38:12;0.57;;;0.30;;
60030;SDS011;45901;47.600;9.890;2024-02-15T12:40:41;0.50;;;0.33;;
60030;SDS011;45901;47.600;9.890;2024-02-15T12:43:11;0.93;;;0.43;;
60030;SDS011;45901;47.600;9.890;2024-02-15T12:45:46;1.33;;;0.50;;
60030;SDS011;45901;47.600;9.890;2024-02-15T12:48:37;1.50;;;0.43;;
60030;SDS011;45901;47.600;9.890;2024-02-15T12:51:12;0.57;;;0.37;;
60030;SDS011;45901;47.600;9.890;2024-02-15T12:54:08;0.87;;;0.40;;
60030;SDS011;45901;47.600;9.890;2024-02-15T12:56:41;0.60;;;0.37;;
60030;SDS011;45901;47.600;9.890;2024-02-15T12:59:08;0.40;;;0.30;;
60030;SDS011;45901;47.600;9.890;2024-02-15T13:01:37;1.40;;;0.43;;
60030;SDS011;45901;47.600;9.890;2024-02-15T13:04:05;0.40;;;0.20;;
60030;SDS011;45901;47.600;9.890;2024-02-15T13:06:33;0.40;;;0.20;;
60030;SDS011;45901;47.600;9.890;2024-02-15T13:09:02;0.27;;;0.20;;
60030;SDS011;45901;47.600;9.890;2024-02-15T13:11:40;0.70;;;0.20;;
60030;SDS011;45901;47.600;9.890;2024-02-15T13:14:21;0.53;;;0.30;;
60030;SDS011;45901;47.600;9.890;2024-02-15T13:16:48;0.33;;;0.20;;
60030;SDS011;45901;47.600;9.890;2024-02-15T13:19:26;0.77;;;0.40;;
60030;SDS011;45901;47.600;9.890;2024-02-15T13:21:56;0.87;;;0.40;;
60030;SDS011;45901;47.600;9.890;2024-02-15T13:24:24;1.73;;;0.20;;
60030;SDS011;45901;47.600;9.890;2024-02-15T13:26:56;0.97;;;0.30;;
60030;SDS011;45901;47.600;9.890;2024-02-15T13:29:24;4.33;;;0.27;;
60030;SDS011;45901;47.600;9.890;2024-02-15T13:31:51;1.13;;;0.20;;
60030;SDS011;45901;47.600;9.890;2024-02-15T13:34:28;0.40;;;0.30;;
60030;SDS011;45901;47.600;9.890;2024-02-15T13:36:58;0.90;;;0.30;;
60030;SDS011;45901;47.600;9.890;2024-02-15T13:39:27;0.50;;;0.20;;
60030;SDS011;45901;47.600;9.890;2024-02-15T13:41:58;1.73;;;0.30;;
60030;SDS011;45901;47.600;9.890;2024-02-15T13:44:25;0.13;;;0.10;;
60030;SDS011;45901;47.600;9.890;2024-02-15T13:46:53;0.30;;;0.23;;
60030;SDS011;45901;47.600;9.890;2024-02-15T13:49:23;0.80;;;0.40;;
60030;SDS011;45901;47.600;9.890;2024-02-15T13:51:52;1.10;;;0.33;;
60030;SDS011;45901;47.600;9.890;2024-02-15T13:54:21;0.47;;;0.30;;
60030;SDS011;45901;47.600;9.890;2024-02-15T14:00:15;2.37;;;0.43;;
60030;SDS011;45901;47.600;9.890;2024-02-15T14:02:47;1.70;;;0.40;;
60030;SDS011;45901;47.600;9.890;2024-02-15T14:05:18;0.67;;;0.20;;
60030;SDS011;45901;47.600;9.890;2024-02-15T14:08:20;0.50;;;0.30;;
60030;SDS011;45901;47.600;9.890;2024-02-15T14:11:16;1.17;;;0.43;;
60030;SDS011;45901;47.600;9.890;2024-02-15T14:13:46;1.30;;;0.30;;
60030;SDS011;45901;47.600;9.890;2024-02-15T14:16:13;0.50;;;0.30;;
60030;SDS011;45901;47.600;9.890;2024-02-15T14:18:45;0.93;;;0.50;;
60030;SDS011;45901;47.600;9.890;2024-02-15T14:21:30;0.40;;;0.30;;
60030;SDS011;45901;47.600;9.890;2024-02-15T14:24:03;1.17;;;0.50;;
60030;SDS011;45901;47.600;9.890;2024-02-15T14:29:42;0.77;;;0.60;;
60030;SDS011;45901;47.600;9.890;2024-02-15T14:32:47;1.60;;;0.53;;
60030;SDS011;45901;47.600;9.890;2024-02-15T14:35:28;0.43;;;0.30;;
60030;SDS011;45901;47.600;9.890;2024-02-15T14:38:00;0.90;;;0.50;;
60030;SDS011;45901;47.600;9.890;2024-02-15T14:40:34;0.97;;;0.53;;
60030;SDS011;45901;47.600;9.890;2024-02-15T14:43:02;2.97;;;0.40;;
60030;SDS011;45901;47.600;9.890;2024-02-15T14:46:19;0.50;;;0.40;;
60030;SDS011;45901;47.600;9.890;2024-02-15T14:48:46;0.47;;;0.30;;
60030;SDS011;45901;47.600;9.890;2024-02-15T14:51:14;1.87;;;0.30;;
60030;SDS011;45901;47.600;9.890;2024-02-15T14:53:43;0.90;;;0.60;;
60030;SDS011;45901;47.600;9.890;2024-02-15T14:56:12;1.03;;;0.50;;
60030;SDS011;45901;47.600;9.890;2024-02-15T14:58:40;0.87;;;0.30;;
60030;SDS011;45901;47.600;9.890;2024-02-15T15:01:11;1.27;;;0.70;;
60030;SDS011;45901;47.600;9.890;2024-02-15T15:04:14;0.83;;;0.50;;
60030;SDS011;45901;47.600;9.890;2024-02-15T15:08:13;2.40;;;0.87;;
60030;SDS011;45901;47.600;9.890;2024-02-15T15:11:22;2.87;;;0.83;;
60030;SDS011;45901;47.600;9.890;2024-02-15T15:18:12;3.50;;;0.50;;
60030;SDS011;45901;47.600;9.890;2024-02-15T15:23:49;0.73;;;0.50;;
60030;SDS011;45901;47.600;9.890;2024-02-15T15:26:51;2.47;;;1.40;;
60030;SDS011;45901;47.600;9.890;2024-02-15T15:29:25;1.80;;;1.10;;
60030;SDS011;45901;47.600;9.890;2024-02-15T15:32:06;1.23;;;0.70;;
60030;SDS011;45901;47.600;9.890;2024-02-15T15:34:38;0.97;;;0.63;;
60030;SDS011;45901;47.600;9.890;2024-02-15T15:38:37;1.67;;;0.77;;
60030;SDS011;45901;47.600;9.890;2024-02-15T15:41:11;1.87;;;0.83;;
60030;SDS011;45901;47.600;9.890;2024-02-15T15:43:39;1.30;;;0.70;;
60030;SDS011;45901;47.600;9.890;2024-02-15T15:46:06;2.20;;;0.90;;